sensor_id;sensor_type;location;lat;lon;timestamp;P1;durP1;ratioP1;P2;durP2;ratioP2
691;SDS011;328;50.086;8.576;2022-11-15T00:00:01;11.40;;;8.27;;
691;SDS011;328;50.086;8.576;2022-11-15T00:02:30;12.13;;;8.30;;
691;SDS011;328;50.086;8.576;2022-11-15T00:04:59;11.43;;;8.80;;
691;SDS011;328;50.086;8.576;2022-11-15T00:07:27;14.00;;;9.37;;
691;SDS011;328;50.086;8.576;2022-11-15T00:10:15;12.47;;;9.20;;
691;SDS011;328;50.086;8.576;2022-11-15T00:12:43;12.37;;;8.70;;
691;SDS011;328;50.086;8.576;2022-11-15T00:15:11;12.67;;;8.70;;
691;SDS011;328;50.086;8.576;2022-11-15T00:17:38;11.47;;;8.27;;
691;SDS011;328;50.086;8.576;2022-11-15T00:20:08;11.63;;;8.43;;
691;SDS011;328;50.086;8.576;2022-11-15T00:22:37;11.23;;;8.30;;
691;SDS011;328;50.086;8.576;2022-11-15T00:25:05;11.60;;;8.77;;
691;SDS011;328;50.086;8.576;2022-11-15T00:27:33;11.67;;;8.80;;
691;SDS011;328;50.086;8.576;2022-11-15T00:30:01;11.17;;;8.77;;
691;SDS011;328;50.086;8.576;2022-11-15T00:32:30;10.00;;;7.57;;
691;SDS011;328;50.086;8.576;2022-11-15T00:34:58;11.63;;;7.80;;
691;SDS011;328;50.086;8.576;2022-11-15T00:37:27;10.50;;;7.67;;
691;SDS011;328;50.086;8.576;2022-11-15T00:39:54;10.43;;;7.77;;
691;SDS011;328;50.086;8.576;2022-11-15T00:42:22;9.80;;;7.60;;
691;SDS011;328;50.086;8.576;2022-11-15T00:44:50;12.23;;;8.03;;
691;SDS011;328;50.086;8.576;2022-11-15T00:47:17;9.57;;;7.47;;
691;SDS011;328;50.086;8.576;2022-11-15T00:49:45;11.23;;;7.20;;
691;SDS011;328;50.086;8.576;2022-11-15T00:52:13;9.63;;;7.83;;
691;SDS011;328;50.086;8.576;2022-11-15T00:54:42;8.00;;;6.87;;
691;SDS011;328;50.086;8.576;2022-11-15T00:57:09;8.33;;;7.50;;
691;SDS011;328;50.086;8.576;2022-11-15T00:59:37;8.63;;;7.20;;
691;SDS011;328;50.086;8.576;2022-11-15T01:02:04;11.57;;;7.50;;
691;SDS011;328;50.086;8.576;2022-11-15T01:04:32;8.90;;;7.40;;
691;SDS011;328;50.086;8.576;2022-11-15T01:07:00;8.80;;;6.70;;
691;SDS011;328;50.086;8.576;2022-11-15T01:09:27;12.70;;;8.63;;
691;SDS011;328;50.086;8.576;2022-11-15T01:11:56;15.97;;;8.27;;
691;SDS011;328;50.086;8.576;2022-11-15T01:14:24;8.13;;;7.23;;
691;SDS011;328;50.086;8.576;2022-11-15T01:16:51;8.83;;;7.90;;
691;SDS011;328;50.086;8.576;2022-11-15T01:19:19;11.70;;;7.70;;
691;SDS011;328;50.086;8.576;2022-11-15T01:21:48;9.30;;;8.30;;
691;SDS011;328;50.086;8.576;2022-11-15T01:24:16;10.37;;;8.23;;
691;SDS011;328;50.086;8.576;2022-11-15T01:26:43;9.93;;;8.10;;
691;SDS011;328;50.086;8.576;2022-11-15T01:29:12;10.30;;;7.73;;
691;SDS011;328;50.086;8.576;2022-11-15T01:31:40;13.67;;;8.33;;
691;SDS011;328;50.086;8.576;2022-11-15T01:34:07;13.33;;;7.97;;
691;SDS011;328;50.086;8.576;2022-11-15T01:36:35;9.83;;;7.60;;
691;SDS011;328;50.086;8.576;2022-11-15T01:39:02;13.93;;;8.27;;
691;SDS011;328;50.086;8.576;2022-11-15T01:41:31;10.40;;;7.47;;
691;SDS011;328;50.086;8.576;2022-11-15T01:47:02;9.00;;;7.20;;
691;SDS011;328;50.086;8.576;2022-11-15T01:49:33;12.23;;;8.00;;
691;SDS011;328;50.086;8.576;2022-11-15T01:52:04;9.60;;;7.40;;
691;SDS011;328;50.086;8.576;2022-11-15T01:54:32;10.97;;;7.53;;
691;SDS011;328;50.086;8.576;2022-11-15T01:57:01;9.80;;;7.73;;
691;SDS011;328;50.086;8.576;2022-11-15T01:59:30;15.13;;;9.63;;
691;SDS011;328;50.086;8.576;2022-11-15T02:01:57;12.60;;;8.87;;
691;SDS011;328;50.086;8.576;2022-11-15T02:04:27;10.13;;;7.83;;
691;SDS011;328;50.086;8.576;2022-11-15T02:06:55;10.77;;;7.97;;
691;SDS011;328;50.086;8.576;2022-11-15T02:09:23;9.60;;;7.93;;
691;SDS011;328;50.086;8.576;2022-11-15T02:11:51;10.00;;;8.03;;
691;SDS011;328;50.086;8.576;2022-11-15T02:14:19;9.53;;;7.90;;
691;SDS011;328;50.086;8.576;2022-11-15T02:16:48;10.97;;;8.00;;
691;SDS011;328;50.086;8.576;2022-11-15T02:19:27;12.60;;;8.93;;
691;SDS011;328;50.086;8.576;2022-11-15T02:22:04;9.87;;;8.30;;
691;SDS011;328;50.086;8.576;2022-11-15T02:24:44;10.70;;;8.07;;
691;SDS011;328;50.086;8.576;2022-11-15T02:27:24;9.13;;;7.57;;
691;SDS011;328;50.086;8.576;2022-11-15T02:30:04;11.93;;;7.90;;
691;SDS011;328;50.086;8.576;2022-11-15T02:32:47;9.30;;;7.20;;
691;SDS011;328;50.086;8.576;2022-11-15T02:35:18;10.97;;;8.10;;
691;SDS011;328;50.086;8.576;2022-11-15T02:37:51;9.70;;;7.77;;
691;SDS011;328;50.086;8.576;2022-11-15T02:40:24;12.27;;;9.53;;
691;SDS011;328;50.086;8.576;2022-11-15T02:42:55;9.73;;;8.00;;
691;SDS011;328;50.086;8.576;2022-11-15T02:45:44;8.30;;;7.13;;
691;SDS011;328;50.086;8.576;2022-11-15T02:48:13;14.77;;;8.90;;
691;SDS011;328;50.086;8.576;2022-11-15T02:50:41;11.10;;;8.33;;
691;SDS011;328;50.086;8.576;2022-11-15T02:53:09;9.50;;;7.03;;
691;SDS011;328;50.086;8.576;2022-11-15T02:55:38;10.67;;;8.00;;
691;SDS011;328;50.086;8.576;2022-11-15T02:58:21;13.40;;;8.73;;
691;SDS011;328;50.086;8.576;2022-11-15T03:01:13;11.27;;;8.27;;
691;SDS011;328;50.086;8.576;2022-11-15T03:03:48;9.73;;;7.83;;
691;SDS011;328;50.086;8.576;2022-11-15T03:06:24;14.93;;;9.47;;
691;SDS011;328;50.086;8.576;2022-11-15T03:08:59;12.17;;;8.10;;
691;SDS011;328;50.086;8.576;2022-11-15T03:11:32;11.83;;;8.40;;
691;SDS011;328;50.086;8.576;2022-11-15T03:14:02;11.83;;;9.07;;
691;SDS011;328;50.086;8.576;2022-11-15T03:16:37;14.30;;;8.40;;
691;SDS011;328;50.086;8.576;2022-11-15T03:19:09;8.93;;;7.43;;
691;SDS011;328;50.086;8.576;2022-11-15T03:21:40;12.17;;;7.97;;
691;SDS011;328;50.086;8.576;2022-11-15T03:24:08;10.83;;;7.73;;
691;SDS011;328;50.086;8.576;2022-11-15T03:26:36;9.67;;;7.80;;
691;SDS011;328;50.086;8.576;2022-11-15T03:29:07;9.30;;;7.17;;
691;SDS011;328;50.086;8.576;2022-11-15T03:31:38;10.30;;;8.17;;
691;SDS011;328;50.086;8.576;2022-11-15T03:34:19;11.20;;;7.80;;
691;SDS011;328;50.086;8.576;2022-11-15T03:36:49;10.00;;;7.93;;
691;SDS011;328;50.086;8.576;2022-11-15T03:39:19;9.30;;;7.97;;
691;SDS011;328;50.086;8.576;2022-11-15T03:41:48;10.97;;;8.93;;
691;SDS011;328;50.086;8.576;2022-11-15T03:44:20;11.93;;;8.33;;
691;SDS011;328;50.086;8.576;2022-11-15T03:46:52;11.90;;;8.53;;
691;SDS011;328;50.086;8.576;2022-11-15T03:49:24;8.70;;;7.13;;
691;SDS011;328;50.086;8.576;2022-11-15T03:51:56;8.90;;;8.00;;
691;SDS011;328;50.086;8.576;2022-11-15T03:54:23;9.80;;;7.77;;
691;SDS011;328;50.086;8.576;2022-11-15T03:56:51;10.07;;;7.60;;
691;SDS011;328;50.086;8.576;2022-11-15T03:59:19;10.80;;;8.50;;
691;SDS011;328;50.086;8.576;2022-11-15T04:01:46;12.13;;;8.00;;
691;SDS011;328;50.086;8.576;2022-11-15T04:04:15;8.87;;;7.30;;
691;SDS011;328;50.086;8.576;2022-11-15T04:06:43;9.57;;;8.23;;
691;SDS011;328;50.086;8.576;2022-11-15T04:09:10;9.97;;;7.40;;
691;SDS011;328;50.086;8.576;2022-11-15T04:11:38;9.63;;;6.60;;
691;SDS011;328;50.086;8.576;2022-11-15T04:14:05;7.90;;;7.10;;
691;SDS011;328;50.086;8.576;2022-11-15T04:16:33;8.77;;;7.53;;
691;SDS011;328;50.086;8.576;2022-11-15T04:19:08;12.97;;;7.57;;
691;SDS011;328;50.086;8.576;2022-11-15T04:21:55;11.30;;;7.40;;
691;SDS011;328;50.086;8.576;2022-11-15T04:24:40;12.43;;;8.27;;
691;SDS011;328;50.086;8.576;2022-11-15T04:27:08;9.70;;;7.90;;
691;SDS011;328;50.086;8.576;2022-11-15T04:29:36;9.37;;;7.43;;
691;SDS011;328;50.086;8.576;2022-11-15T04:32:04;10.50;;;7.73;;
691;SDS011;328;50.086;8.576;2022-11-15T04:34:32;13.87;;;8.40;;
691;SDS011;328;50.086;8.576;2022-11-15T04:37:01;11.80;;;8.13;;
691;SDS011;328;50.086;8.576;2022-11-15T04:39:42;10.10;;;7.37;;
691;SDS011;328;50.086;8.576;2022-11-15T04:42:10;9.13;;;8.00;;
691;SDS011;328;50.086;8.576;2022-11-15T04:44:38;13.17;;;8.60;;
691;SDS011;328;50.086;8.576;2022-11-15T04:47:05;12.50;;;9.37;;
691;SDS011;328;50.086;8.576;2022-11-15T04:49:33;9.63;;;8.20;;
691;SDS011;328;50.086;8.576;2022-11-15T04:52:02;10.80;;;8.40;;
691;SDS011;328;50.086;8.576;2022-11-15T04:54:30;11.67;;;9.77;;
691;SDS011;328;50.086;8.576;2022-11-15T04:56:57;11.17;;;9.00;;
691;SDS011;328;50.086;8.576;2022-11-15T04:59:25;11.37;;;8.73;;
691;SDS011;328;50.086;8.576;2022-11-15T05:01:52;12.30;;;8.60;;
691;SDS011;328;50.086;8.576;2022-11-15T05:04:20;11.73;;;8.93;;
691;SDS011;328;50.086;8.576;2022-11-15T05:06:47;11.70;;;9.60;;
691;SDS011;328;50.086;8.576;2022-11-15T05:09:17;11.67;;;9.10;;
691;SDS011;328;50.086;8.576;2022-11-15T05:11:45;16.57;;;8.80;;
691;SDS011;328;50.086;8.576;2022-11-15T05:14:12;11.00;;;8.60;;
691;SDS011;328;50.086;8.576;2022-11-15T05:16:41;11.80;;;9.23;;
691;SDS011;328;50.086;8.576;2022-11-15T05:19:08;11.90;;;9.70;;
691;SDS011;328;50.086;8.576;2022-11-15T05:21:36;11.07;;;8.80;;
691;SDS011;328;50.086;8.576;2022-11-15T05:24:04;12.20;;;9.23;;
691;SDS011;328;50.086;8.576;2022-11-15T05:26:34;10.67;;;8.83;;
691;SDS011;328;50.086;8.576;2022-11-15T05:29:01;11.83;;;9.10;;
691;SDS011;328;50.086;8.576;2022-11-15T05:31:29;12.50;;;7.90;;
691;SDS011;328;50.086;8.576;2022-11-15T05:34:04;10.47;;;8.90;;
691;SDS011;328;50.086;8.576;2022-11-15T05:36:33;12.10;;;8.80;;
691;SDS011;328;50.086;8.576;2022-11-15T05:39:03;11.93;;;8.00;;
691;SDS011;328;50.086;8.576;2022-11-15T05:41:32;10.33;;;8.20;;
691;SDS011;328;50.086;8.576;2022-11-15T05:44:02;8.50;;;7.60;;
691;SDS011;328;50.086;8.576;2022-11-15T05:46:33;11.60;;;8.17;;
691;SDS011;328;50.086;8.576;2022-11-15T05:49:01;11.77;;;8.83;;
691;SDS011;328;50.086;8.576;2022-11-15T05:51:29;9.60;;;8.60;;
691;SDS011;328;50.086;8.576;2022-11-15T05:53:56;9.67;;;8.00;;
691;SDS011;328;50.086;8.576;2022-11-15T05:56:25;10.97;;;8.70;;
691;SDS011;328;50.086;8.576;2022-11-15T05:58:54;12.23;;;8.77;;
691;SDS011;328;50.086;8.576;2022-11-15T06:01:25;12.80;;;8.70;;
691;SDS011;328;50.086;8.576;2022-11-15T06:03:53;10.07;;;7.80;;
691;SDS011;328;50.086;8.576;2022-11-15T06:06:20;10.00;;;8.07;;
691;SDS011;328;50.086;8.576;2022-11-15T06:08:48;11.60;;;8.60;;
691;SDS011;328;50.086;8.576;2022-11-15T06:11:15;10.80;;;9.10;;
691;SDS011;328;50.086;8.576;2022-11-15T06:13:43;9.90;;;7.77;;
691;SDS011;328;50.086;8.576;2022-11-15T06:16:12;12.70;;;7.90;;
691;SDS011;328;50.086;8.576;2022-11-15T06:18:39;9.10;;;7.20;;
691;SDS011;328;50.086;8.576;2022-11-15T06:21:07;9.60;;;6.97;;
691;SDS011;328;50.086;8.576;2022-11-15T06:23:34;8.23;;;7.10;;
691;SDS011;328;50.086;8.576;2022-11-15T06:26:02;7.63;;;5.80;;
691;SDS011;328;50.086;8.576;2022-11-15T06:28:30;7.50;;;5.80;;
691;SDS011;328;50.086;8.576;2022-11-15T06:31:01;8.30;;;6.33;;
691;SDS011;328;50.086;8.576;2022-11-15T06:33:31;9.77;;;6.87;;
691;SDS011;328;50.086;8.576;2022-11-15T06:36:00;9.13;;;6.43;;
691;SDS011;328;50.086;8.576;2022-11-15T06:38:28;6.93;;;5.70;;
691;SDS011;328;50.086;8.576;2022-11-15T06:41:00;7.70;;;6.37;;
691;SDS011;328;50.086;8.576;2022-11-15T06:43:28;9.03;;;5.37;;
691;SDS011;328;50.086;8.576;2022-11-15T06:45:57;10.70;;;6.20;;
691;SDS011;328;50.086;8.576;2022-11-15T06:48:24;9.67;;;6.70;;
691;SDS011;328;50.086;8.576;2022-11-15T06:50:54;9.80;;;7.30;;
691;SDS011;328;50.086;8.576;2022-11-15T06:53:22;7.23;;;6.53;;
691;SDS011;328;50.086;8.576;2022-11-15T06:55:50;8.47;;;7.30;;
691;SDS011;328;50.086;8.576;2022-11-15T06:58:21;8.00;;;6.07;;
691;SDS011;328;50.086;8.576;2022-11-15T07:00:48;8.83;;;6.50;;
691;SDS011;328;50.086;8.576;2022-11-15T07:03:16;6.03;;;5.23;;
691;SDS011;328;50.086;8.576;2022-11-15T07:05:49;7.47;;;6.30;;
691;SDS011;328;50.086;8.576;2022-11-15T07:08:19;9.30;;;6.53;;
691;SDS011;328;50.086;8.576;2022-11-15T07:10:47;9.50;;;5.90;;
691;SDS011;328;50.086;8.576;2022-11-15T07:13:16;9.03;;;6.70;;
691;SDS011;328;50.086;8.576;2022-11-15T07:15:43;8.20;;;5.77;;
691;SDS011;328;50.086;8.576;2022-11-15T07:18:11;8.83;;;6.57;;
691;SDS011;328;50.086;8.576;2022-11-15T07:20:39;6.57;;;5.70;;
691;SDS011;328;50.086;8.576;2022-11-15T07:23:07;8.80;;;7.10;;
691;SDS011;328;50.086;8.576;2022-11-15T07:25:36;9.07;;;6.83;;
691;SDS011;328;50.086;8.576;2022-11-15T07:28:03;16.80;;;7.60;;
691;SDS011;328;50.086;8.576;2022-11-15T07:30:31;11.50;;;6.93;;
691;SDS011;328;50.086;8.576;2022-11-15T07:32:59;10.20;;;7.40;;
691;SDS011;328;50.086;8.576;2022-11-15T07:35:28;9.77;;;7.03;;
691;SDS011;328;50.086;8.576;2022-11-15T07:37:56;11.97;;;9.20;;
691;SDS011;328;50.086;8.576;2022-11-15T07:40:24;9.87;;;7.53;;
691;SDS011;328;50.086;8.576;2022-11-15T07:42:54;10.80;;;7.20;;
691;SDS011;328;50.086;8.576;2022-11-15T07:45:26;12.43;;;8.47;;
691;SDS011;328;50.086;8.576;2022-11-15T07:47:54;9.20;;;6.87;;
691;SDS011;328;50.086;8.576;2022-11-15T07:50:24;11.60;;;7.93;;
691;SDS011;328;50.086;8.576;2022-11-15T07:52:55;9.20;;;6.37;;
691;SDS011;328;50.086;8.576;2022-11-15T07:55:23;13.07;;;7.80;;
691;SDS011;328;50.086;8.576;2022-11-15T07:57:59;9.63;;;6.20;;
691;SDS011;328;50.086;8.576;2022-11-15T08:00:27;7.90;;;5.73;;
691;SDS011;328;50.086;8.576;2022-11-15T08:03:00;22.43;;;6.17;;
691;SDS011;328;50.086;8.576;2022-11-15T08:05:28;7.53;;;6.17;;
691;SDS011;328;50.086;8.576;2022-11-15T08:07:56;8.20;;;6.00;;
691;SDS011;328;50.086;8.576;2022-11-15T08:10:24;11.43;;;5.90;;
691;SDS011;328;50.086;8.576;2022-11-15T08:13:03;8.03;;;5.87;;
691;SDS011;328;50.086;8.576;2022-11-15T08:15:31;7.50;;;6.20;;
691;SDS011;328;50.086;8.576;2022-11-15T08:18:01;6.33;;;5.60;;
691;SDS011;328;50.086;8.576;2022-11-15T08:20:31;8.00;;;5.90;;
691;SDS011;328;50.086;8.576;2022-11-15T08:23:00;9.93;;;6.10;;
691;SDS011;328;50.086;8.576;2022-11-15T08:25:30;8.83;;;5.93;;
691;SDS011;328;50.086;8.576;2022-11-15T08:27:59;20.43;;;7.13;;
691;SDS011;328;50.086;8.576;2022-11-15T08:30:30;7.27;;;5.23;;
691;SDS011;328;50.086;8.576;2022-11-15T08:32:59;6.97;;;5.20;;
691;SDS011;328;50.086;8.576;2022-11-15T08:35:28;8.40;;;6.30;;
691;SDS011;328;50.086;8.576;2022-11-15T08:37:58;9.00;;;6.37;;
691;SDS011;328;50.086;8.576;2022-11-15T08:40:28;8.40;;;6.97;;
691;SDS011;328;50.086;8.576;2022-11-15T08:42:59;8.13;;;7.33;;
691;SDS011;328;50.086;8.576;2022-11-15T08:45:33;7.70;;;5.70;;
691;SDS011;328;50.086;8.576;2022-11-15T08:48:01;8.83;;;6.37;;
691;SDS011;328;50.086;8.576;2022-11-15T08:50:29;12.43;;;6.60;;
691;SDS011;328;50.086;8.576;2022-11-15T08:52:59;10.03;;;6.50;;
691;SDS011;328;50.086;8.576;2022-11-15T08:55:31;8.47;;;5.93;;
691;SDS011;328;50.086;8.576;2022-11-15T08:57:59;7.20;;;6.23;;
691;SDS011;328;50.086;8.576;2022-11-15T09:00:29;9.40;;;6.03;;
691;SDS011;328;50.086;8.576;2022-11-15T09:03:04;9.30;;;6.60;;
691;SDS011;328;50.086;8.576;2022-11-15T09:05:39;6.40;;;5.67;;
691;SDS011;328;50.086;8.576;2022-11-15T09:08:11;7.40;;;5.57;;
691;SDS011;328;50.086;8.576;2022-11-15T09:11:02;7.20;;;6.47;;
691;SDS011;328;50.086;8.576;2022-11-15T09:13:31;8.53;;;6.27;;
691;SDS011;328;50.086;8.576;2022-11-15T09:16:01;9.00;;;6.77;;
691;SDS011;328;50.086;8.576;2022-11-15T09:18:36;8.13;;;6.50;;
691;SDS011;328;50.086;8.576;2022-11-15T09:21:08;9.07;;;5.30;;
691;SDS011;328;50.086;8.576;2022-11-15T09:23:59;9.13;;;6.57;;
691;SDS011;328;50.086;8.576;2022-11-15T09:26:34;8.10;;;6.63;;
691;SDS011;328;50.086;8.576;2022-11-15T09:29:05;10.60;;;6.27;;
691;SDS011;328;50.086;8.576;2022-11-15T09:31:39;6.33;;;5.30;;
691;SDS011;328;50.086;8.576;2022-11-15T09:34:23;7.03;;;5.53;;
691;SDS011;328;50.086;8.576;2022-11-15T09:37:03;5.80;;;5.23;;
691;SDS011;328;50.086;8.576;2022-11-15T09:39:41;10.70;;;5.47;;
691;SDS011;328;50.086;8.576;2022-11-15T09:42:30;9.30;;;4.70;;
691;SDS011;328;50.086;8.576;2022-11-15T09:47:15;7.87;;;4.70;;
691;SDS011;328;50.086;8.576;2022-11-15T09:48:20;8.83;;;4.63;;
691;SDS011;328;50.086;8.576;2022-11-15T09:51:00;8.77;;;5.20;;
691;SDS011;328;50.086;8.576;2022-11-15T09:53:33;8.63;;;5.20;;
691;SDS011;328;50.086;8.576;2022-11-15T09:56:31;6.83;;;4.93;;
691;SDS011;328;50.086;8.576;2022-11-15T09:59:06;6.27;;;4.27;;
691;SDS011;328;50.086;8.576;2022-11-15T10:01:57;9.73;;;5.57;;
691;SDS011;328;50.086;8.576;2022-11-15T10:04:31;6.40;;;4.33;;
691;SDS011;328;50.086;8.576;2022-11-15T10:07:02;5.77;;;4.97;;
691;SDS011;328;50.086;8.576;2022-11-15T10:09:42;6.03;;;4.70;;
691;SDS011;328;50.086;8.576;2022-11-15T10:12:14;5.53;;;4.80;;
691;SDS011;328;50.086;8.576;2022-11-15T10:14:45;7.50;;;4.47;;
691;SDS011;328;50.086;8.576;2022-11-15T10:20:18;6.07;;;5.47;;
691;SDS011;328;50.086;8.576;2022-11-15T10:22:50;5.70;;;4.80;;
691;SDS011;328;50.086;8.576;2022-11-15T10:25:21;11.37;;;5.27;;
691;SDS011;328;50.086;8.576;2022-11-15T10:27:54;6.00;;;4.53;;
691;SDS011;328;50.086;8.576;2022-11-15T10:30:29;6.23;;;4.53;;
691;SDS011;328;50.086;8.576;2022-11-15T10:33:00;5.70;;;4.47;;
691;SDS011;328;50.086;8.576;2022-11-15T10:35:42;8.10;;;4.80;;
691;SDS011;328;50.086;8.576;2022-11-15T10:38:16;5.70;;;4.53;;
691;SDS011;328;50.086;8.576;2022-11-15T10:40:44;6.60;;;4.10;;
691;SDS011;328;50.086;8.576;2022-11-15T10:43:13;5.27;;;4.20;;
691;SDS011;328;50.086;8.576;2022-11-15T10:45:43;7.70;;;5.67;;
691;SDS011;328;50.086;8.576;2022-11-15T10:48:19;5.20;;;4.10;;
691;SDS011;328;50.086;8.576;2022-11-15T10:50:53;5.63;;;4.47;;
691;SDS011;328;50.086;8.576;2022-11-15T10:53:28;6.50;;;4.40;;
691;SDS011;328;50.086;8.576;2022-11-15T10:56:01;6.17;;;4.83;;
691;SDS011;328;50.086;8.576;2022-11-15T10:58:35;6.30;;;4.63;;
691;SDS011;328;50.086;8.576;2022-11-15T11:01:11;7.33;;;4.20;;
691;SDS011;328;50.086;8.576;2022-11-15T11:03:44;7.00;;;4.87;;
691;SDS011;328;50.086;8.576;2022-11-15T11:06:16;5.27;;;4.77;;
691;SDS011;328;50.086;8.576;2022-11-15T11:09:10;4.83;;;4.20;;
691;SDS011;328;50.086;8.576;2022-11-15T11:11:56;6.10;;;4.53;;
691;SDS011;328;50.086;8.576;2022-11-15T11:14:26;7.50;;;4.53;;
691;SDS011;328;50.086;8.576;2022-11-15T11:17:41;6.30;;;4.10;;
691;SDS011;328;50.086;8.576;2022-11-15T11:21:57;5.90;;;4.57;;
691;SDS011;328;50.086;8.576;2022-11-15T11:28:39;9.47;;;5.40;;
691;SDS011;328;50.086;8.576;2022-11-15T11:31:21;5.87;;;4.57;;
691;SDS011;328;50.086;8.576;2022-11-15T11:34:22;5.80;;;4.20;;
691;SDS011;328;50.086;8.576;2022-11-15T11:37:09;5.50;;;4.13;;
691;SDS011;328;50.086;8.576;2022-11-15T11:39:44;5.80;;;4.83;;
691;SDS011;328;50.086;8.576;2022-11-15T11:42:26;5.53;;;4.10;;
691;SDS011;328;50.086;8.576;2022-11-15T11:45:14;6.10;;;4.07;;
691;SDS011;328;50.086;8.576;2022-11-15T11:47:46;5.27;;;3.67;;
691;SDS011;328;50.086;8.576;2022-11-15T11:50:15;4.87;;;3.70;;
691;SDS011;328;50.086;8.576;2022-11-15T11:52:51;7.60;;;3.77;;
691;SDS011;328;50.086;8.576;2022-11-15T11:55:31;3.93;;;3.20;;
691;SDS011;328;50.086;8.576;2022-11-15T11:58:06;5.77;;;3.40;;
691;SDS011;328;50.086;8.576;2022-11-15T12:01:03;5.50;;;3.87;;
691;SDS011;328;50.086;8.576;2022-11-15T12:03:57;5.70;;;3.70;;
691;SDS011;328;50.086;8.576;2022-11-15T12:07:01;5.80;;;3.70;;
691;SDS011;328;50.086;8.576;2022-11-15T12:09:43;4.00;;;3.40;;
691;SDS011;328;50.086;8.576;2022-11-15T12:12:34;5.37;;;4.10;;
691;SDS011;328;50.086;8.576;2022-11-15T12:15:12;4.17;;;3.50;;
691;SDS011;328;50.086;8.576;2022-11-15T12:17:42;4.33;;;3.13;;
691;SDS011;328;50.086;8.576;2022-11-15T12:20:17;4.73;;;3.70;;
691;SDS011;328;50.086;8.576;2022-11-15T12:22:47;4.00;;;3.27;;
691;SDS011;328;50.086;8.576;2022-11-15T12:25:20;4.27;;;3.27;;
691;SDS011;328;50.086;8.576;2022-11-15T12:27:52;4.90;;;3.90;;
691;SDS011;328;50.086;8.576;2022-11-15T12:30:37;3.67;;;3.23;;
691;SDS011;328;50.086;8.576;2022-11-15T12:33:30;8.30;;;3.90;;
691;SDS011;328;50.086;8.576;2022-11-15T12:36:00;5.13;;;4.30;;
691;SDS011;328;50.086;8.576;2022-11-15T12:41:26;4.27;;;3.47;;
691;SDS011;328;50.086;8.576;2022-11-15T12:43:55;6.10;;;4.00;;
691;SDS011;328;50.086;8.576;2022-11-15T12:49:46;4.77;;;3.53;;
691;SDS011;328;50.086;8.576;2022-11-15T12:52:21;6.27;;;3.77;;
691;SDS011;328;50.086;8.576;2022-11-15T12:55:36;5.40;;;4.03;;
691;SDS011;328;50.086;8.576;2022-11-15T12:58:40;3.90;;;3.40;;
691;SDS011;328;50.086;8.576;2022-11-15T13:04:41;5.33;;;4.33;;
691;SDS011;328;50.086;8.576;2022-11-15T13:10:33;4.87;;;3.50;;
691;SDS011;328;50.086;8.576;2022-11-15T13:13:02;3.50;;;3.03;;
691;SDS011;328;50.086;8.576;2022-11-15T13:15:35;7.80;;;4.53;;
691;SDS011;328;50.086;8.576;2022-11-15T13:21:17;3.23;;;2.93;;
691;SDS011;328;50.086;8.576;2022-11-15T13:24:04;4.23;;;3.50;;
691;SDS011;328;50.086;8.576;2022-11-15T13:26:40;4.57;;;3.20;;
691;SDS011;328;50.086;8.576;2022-11-15T13:29:22;3.47;;;2.37;;
691;SDS011;328;50.086;8.576;2022-11-15T13:31:54;3.17;;;2.50;;
691;SDS011;328;50.086;8.576;2022-11-15T13:34:34;4.07;;;2.60;;
691;SDS011;328;50.086;8.576;2022-11-15T13:37:29;3.07;;;2.30;;
691;SDS011;328;50.086;8.576;2022-11-15T13:40:15;3.97;;;2.83;;
691;SDS011;328;50.086;8.576;2022-11-15T13:42:53;3.23;;;2.93;;
691;SDS011;328;50.086;8.576;2022-11-15T13:45:24;3.70;;;2.73;;
691;SDS011;328;50.086;8.576;2022-11-15T13:47:56;3.07;;;2.77;;
691;SDS011;328;50.086;8.576;2022-11-15T13:50:33;3.60;;;3.30;;
691;SDS011;328;50.086;8.576;2022-11-15T13:53:10;4.00;;;3.37;;
691;SDS011;328;50.086;8.576;2022-11-15T13:55:39;4.30;;;3.10;;
691;SDS011;328;50.086;8.576;2022-11-15T13:58:08;3.30;;;2.93;;
691;SDS011;328;50.086;8.576;2022-11-15T14:00:49;4.63;;;2.77;;
691;SDS011;328;50.086;8.576;2022-11-15T14:03:34;3.67;;;2.60;;
691;SDS011;328;50.086;8.576;2022-11-15T14:07:23;3.60;;;2.30;;
691;SDS011;328;50.086;8.576;2022-11-15T14:13:30;2.87;;;2.13;;
691;SDS011;328;50.086;8.576;2022-11-15T14:19:37;5.37;;;1.73;;
691;SDS011;328;50.086;8.576;2022-11-15T14:22:16;1.90;;;1.37;;
691;SDS011;328;50.086;8.576;2022-11-15T14:25:13;3.27;;;2.10;;
691;SDS011;328;50.086;8.576;2022-11-15T14:30:47;1.93;;;1.60;;
691;SDS011;328;50.086;8.576;2022-11-15T14:33:20;2.77;;;1.90;;
691;SDS011;328;50.086;8.576;2022-11-15T14:35:50;1.97;;;1.80;;
691;SDS011;328;50.086;8.576;2022-11-15T14:38:18;2.77;;;1.73;;
691;SDS011;328;50.086;8.576;2022-11-15T14:40:47;1.63;;;1.40;;
691;SDS011;328;50.086;8.576;2022-11-15T14:43:15;2.33;;;1.80;;
691;SDS011;328;50.086;8.576;2022-11-15T14:45:43;1.90;;;1.43;;
691;SDS011;328;50.086;8.576;2022-11-15T14:48:12;3.87;;;1.73;;
691;SDS011;328;50.086;8.576;2022-11-15T14:50:39;3.93;;;1.40;;
691;SDS011;328;50.086;8.576;2022-11-15T14:53:10;1.70;;;1.50;;
691;SDS011;328;50.086;8.576;2022-11-15T14:55:39;1.80;;;1.40;;
691;SDS011;328;50.086;8.576;2022-11-15T14:58:07;2.00;;;1.10;;
691;SDS011;328;50.086;8.576;2022-11-15T15:00:36;2.30;;;1.83;;
691;SDS011;328;50.086;8.576;2022-11-15T15:03:05;2.00;;;1.67;;
691;SDS011;328;50.086;8.576;2022-11-15T15:05:38;2.30;;;2.10;;
691;SDS011;328;50.086;8.576;2022-11-15T15:08:08;2.00;;;1.70;;
691;SDS011;328;50.086;8.576;2022-11-15T15:10:37;3.10;;;1.77;;
691;SDS011;328;50.086;8.576;2022-11-15T15:13:10;2.43;;;2.20;;
691;SDS011;328;50.086;8.576;2022-11-15T15:15:43;4.07;;;2.50;;
691;SDS011;328;50.086;8.576;2022-11-15T15:18:11;3.87;;;2.50;;
691;SDS011;328;50.086;8.576;2022-11-15T15:20:41;5.17;;;2.90;;
691;SDS011;328;50.086;8.576;2022-11-15T15:23:13;3.57;;;2.70;;
691;SDS011;328;50.086;8.576;2022-11-15T15:25:43;7.13;;;3.40;;
691;SDS011;328;50.086;8.576;2022-11-15T15:28:12;5.00;;;3.33;;
691;SDS011;328;50.086;8.576;2022-11-15T15:30:40;4.03;;;2.97;;
691;SDS011;328;50.086;8.576;2022-11-15T15:33:08;4.50;;;4.10;;
691;SDS011;328;50.086;8.576;2022-11-15T15:35:36;4.57;;;3.80;;
691;SDS011;328;50.086;8.576;2022-11-15T15:38:05;5.13;;;4.20;;
691;SDS011;328;50.086;8.576;2022-11-15T15:40:33;7.17;;;3.87;;
691;SDS011;328;50.086;8.576;2022-11-15T15:43:01;4.63;;;2.90;;
691;SDS011;328;50.086;8.576;2022-11-15T15:45:29;3.60;;;3.20;;
691;SDS011;328;50.086;8.576;2022-11-15T15:47:58;4.63;;;3.63;;
691;SDS011;328;50.086;8.576;2022-11-15T15:50:26;4.03;;;2.70;;
691;SDS011;328;50.086;8.576;2022-11-15T15:52:56;3.93;;;3.23;;
691;SDS011;328;50.086;8.576;2022-11-15T15:55:26;4.60;;;3.03;;
691;SDS011;328;50.086;8.576;2022-11-15T15:57:54;7.37;;;3.73;;
691;SDS011;328;50.086;8.576;2022-11-15T16:00:22;5.30;;;3.10;;
691;SDS011;328;50.086;8.576;2022-11-15T16:02:51;6.93;;;4.07;;
691;SDS011;328;50.086;8.576;2022-11-15T16:05:19;2.90;;;2.47;;
691;SDS011;328;50.086;8.576;2022-11-15T16:07:47;5.10;;;3.50;;
691;SDS011;328;50.086;8.576;2022-11-15T16:10:22;6.13;;;4.00;;
691;SDS011;328;50.086;8.576;2022-11-15T16:12:54;8.53;;;4.10;;
691;SDS011;328;50.086;8.576;2022-11-15T16:15:23;6.43;;;5.80;;
691;SDS011;328;50.086;8.576;2022-11-15T16:17:53;6.63;;;5.90;;
691;SDS011;328;50.086;8.576;2022-11-15T16:20:31;9.17;;;5.60;;
691;SDS011;328;50.086;8.576;2022-11-15T16:23:02;10.23;;;7.43;;
691;SDS011;328;50.086;8.576;2022-11-15T16:25:36;9.20;;;4.90;;
691;SDS011;328;50.086;8.576;2022-11-15T16:28:10;5.73;;;4.27;;
691;SDS011;328;50.086;8.576;2022-11-15T16:30:42;6.27;;;4.27;;
691;SDS011;328;50.086;8.576;2022-11-15T16:33:10;5.97;;;4.10;;
691;SDS011;328;50.086;8.576;2022-11-15T16:35:37;6.40;;;3.80;;
691;SDS011;328;50.086;8.576;2022-11-15T16:38:05;9.57;;;4.73;;
691;SDS011;328;50.086;8.576;2022-11-15T16:40:34;7.17;;;4.90;;
691;SDS011;328;50.086;8.576;2022-11-15T16:43:03;8.47;;;4.20;;
691;SDS011;328;50.086;8.576;2022-11-15T16:45:33;7.40;;;5.10;;
691;SDS011;328;50.086;8.576;2022-11-15T16:48:02;13.57;;;7.17;;
691;SDS011;328;50.086;8.576;2022-11-15T16:50:30;14.93;;;8.53;;